createdAt,value
2023-08-14T00:01:30.720Z,10.20
2023-08-14T00:03:06.072Z,10.13
2023-08-14T00:04:41.004Z,10.12
2023-08-14T00:06:15.434Z,10.02
2023-08-14T00:07:50.398Z,10.21
2023-08-14T00:09:25.229Z,10.01
2023-08-14T00:10:59.650Z,10.05
2023-08-14T00:12:34.509Z,10.27
2023-08-14T00:14:09.555Z,10.35
2023-08-14T00:15:44.478Z,10.11
2023-08-14T00:17:19.370Z,10.00
2023-08-14T00:18:55.272Z,9.73
2023-08-14T00:20:30.430Z,9.86
2023-08-14T00:22:05.303Z,9.77
2023-08-14T00:23:40.152Z,9.68
2023-08-14T00:25:14.942Z,9.83
2023-08-14T00:26:49.875Z,9.85
2023-08-14T00:28:24.809Z,9.72
2023-08-14T00:29:59.363Z,10.13
2023-08-14T00:31:34.230Z,9.89
2023-08-14T00:33:09.210Z,9.91
2023-08-14T00:34:44.099Z,9.98
2023-08-14T00:36:19.011Z,10.04
2023-08-14T00:37:53.860Z,10.11
2023-08-14T00:39:28.374Z,10.20
2023-08-14T00:41:03.587Z,10.40
2023-08-14T00:42:40.791Z,10.46
2023-08-14T00:44:16.297Z,9.91
2023-08-14T00:45:54.743Z,10.10
2023-08-14T00:47:29.993Z,10.05
2023-08-14T00:49:05.157Z,9.74
2023-08-14T00:50:40.394Z,9.70
2023-08-14T00:52:15.697Z,9.87
2023-08-14T00:53:52.290Z,9.78
2023-08-14T00:55:31.055Z,9.81
2023-08-14T00:57:06.240Z,9.57
2023-08-14T00:58:41.666Z,9.95
2023-08-14T01:00:16.715Z,10.24
2023-08-14T01:01:51.635Z,10.17
2023-08-14T01:03:27.245Z,9.80
2023-08-14T01:05:02.963Z,9.50
2023-08-14T01:06:38.206Z,9.61
2023-08-14T01:08:13.074Z,9.51
2023-08-14T01:09:48.280Z,9.56
2023-08-14T01:11:23.106Z,9.20
2023-08-14T01:13:19.938Z,9.33
2023-08-14T01:15:04.376Z,9.83
2023-08-14T01:16:46.627Z,9.34
2023-08-14T01:18:23.787Z,9.43
2023-08-14T01:19:59.674Z,9.68
2023-08-14T01:21:47.409Z,9.91
2023-08-14T01:23:35.703Z,9.77
2023-08-14T01:25:49.915Z,9.66
2023-08-14T01:27:25.363Z,9.96
2023-08-14T01:29:03.595Z,9.63
2023-08-14T01:30:39.357Z,9.82
2023-08-14T01:32:14.242Z,9.59
2023-08-14T01:33:48.771Z,9.78
2023-08-14T01:35:26.438Z,9.77
2023-08-14T01:37:11.176Z,9.72
2023-08-14T01:39:00.083Z,9.70
2023-08-14T01:40:34.913Z,9.60
2023-08-14T01:42:30.367Z,9.78
2023-08-14T01:44:08.831Z,9.57
2023-08-14T01:45:43.945Z,9.63
2023-08-14T01:47:19.247Z,9.39
2023-08-14T01:48:57.342Z,9.33
2023-08-14T01:50:33.299Z,9.41
2023-08-14T01:52:08.662Z,9.41
2023-08-14T01:53:43.801Z,9.49
2023-08-14T01:55:18.677Z,9.16
2023-08-14T01:56:53.736Z,9.23
2023-08-14T01:58:28.567Z,9.22
2023-08-14T02:00:03.360Z,9.18
2023-08-14T02:01:38.137Z,9.08
2023-08-14T02:03:13.738Z,9.34
2023-08-14T02:04:49.385Z,9.53
2023-08-14T02:06:25.815Z,9.57
2023-08-14T02:08:00.324Z,9.33
2023-08-14T02:09:35.831Z,9.19
2023-08-14T02:11:11.438Z,9.54
2023-08-14T02:12:46.336Z,9.82
2023-08-14T02:14:21.308Z,9.81
2023-08-14T02:15:56.273Z,9.74
2023-08-14T02:17:31.208Z,9.51
2023-08-14T02:19:06.155Z,9.42
2023-08-14T02:20:51.445Z,9.26
2023-08-14T02:22:26.339Z,9.13
2023-08-14T02:24:01.170Z,9.37
2023-08-14T02:25:41.388Z,9.31
2023-08-14T02:27:16.496Z,9.47
2023-08-14T02:28:51.884Z,9.27
2023-08-14T02:30:26.707Z,9.45
2023-08-14T02:32:01.125Z,9.19
2023-08-14T02:33:35.908Z,9.07
2023-08-14T02:35:10.695Z,9.11
2023-08-14T02:36:45.416Z,8.92
2023-08-14T02:38:19.856Z,8.62
2023-08-14T02:39:54.594Z,8.74
2023-08-14T02:41:31.007Z,8.88
2023-08-14T02:43:05.936Z,8.94
2023-08-14T02:44:40.838Z,8.91
2023-08-14T02:46:15.808Z,9.06
2023-08-14T02:47:50.746Z,9.29
2023-08-14T02:49:25.825Z,9.44
2023-08-14T02:51:00.880Z,9.40
2023-08-14T02:52:35.749Z,8.90
2023-08-14T02:54:10.709Z,8.67
2023-08-14T02:55:50.973Z,8.85
2023-08-14T02:57:25.811Z,9.06
2023-08-14T02:59:00.240Z,8.82
2023-08-14T03:00:35.301Z,8.79
2023-08-14T03:02:10.194Z,8.91
2023-08-14T03:03:44.648Z,9.04
2023-08-14T03:05:19.660Z,8.81
2023-08-14T03:06:54.707Z,8.77
2023-08-14T03:08:29.596Z,8.81
2023-08-14T03:10:04.766Z,8.73
2023-08-14T03:11:39.680Z,8.82
2023-08-14T03:13:14.714Z,8.93
2023-08-14T03:14:49.543Z,8.38
2023-08-14T03:16:24.100Z,8.05
2023-08-14T03:17:58.942Z,8.10
2023-08-14T03:19:34.242Z,8.49
2023-08-14T03:21:09.272Z,8.64
2023-08-14T03:22:44.120Z,8.66
2023-08-14T03:24:19.021Z,8.85
2023-08-14T03:25:53.962Z,8.90
2023-08-14T03:27:28.876Z,8.97
2023-08-14T03:29:03.814Z,8.91
2023-08-14T03:30:42.108Z,8.90
2023-08-14T03:32:17.386Z,8.95
2023-08-14T03:33:52.479Z,8.82
2023-08-14T03:35:27.418Z,8.80
2023-08-14T03:37:01.813Z,9.05
2023-08-14T03:38:36.751Z,8.87
2023-08-14T03:40:12.007Z,8.63
2023-08-14T03:41:46.907Z,8.58
2023-08-14T03:43:21.315Z,8.78
2023-08-14T03:44:56.285Z,8.68
2023-08-14T03:46:31.116Z,8.64
2023-08-14T03:48:05.789Z,8.57
2023-08-14T03:49:40.621Z,8.75
2023-08-14T03:51:15.036Z,8.80
2023-08-14T03:52:52.328Z,8.93
2023-08-14T03:54:27.160Z,8.85
2023-08-14T03:56:01.714Z,8.74
2023-08-14T03:57:37.097Z,8.83
2023-08-14T03:59:12.155Z,8.86
2023-08-14T04:00:48.991Z,8.90
2023-08-14T04:02:23.878Z,8.87
2023-08-14T04:03:58.505Z,9.02
2023-08-14T04:05:33.372Z,8.85
2023-08-14T04:07:07.809Z,8.58
2023-08-14T04:08:42.642Z,8.45
2023-08-14T04:10:17.350Z,8.68
2023-08-14T04:11:52.081Z,8.65
2023-08-14T04:13:29.654Z,8.43
2023-08-14T04:15:18.499Z,8.36
2023-08-14T04:16:53.874Z,8.24
2023-08-14T04:18:29.989Z,8.05
2023-08-14T04:20:05.077Z,8.25
2023-08-14T04:21:39.918Z,8.41
2023-08-14T04:23:14.389Z,8.39
2023-08-14T04:24:49.177Z,8.27
2023-08-14T04:26:23.593Z,8.30
2023-08-14T04:27:58.459Z,8.60
2023-08-14T04:29:33.309Z,8.56
2023-08-14T04:31:07.727Z,8.60
2023-08-14T04:32:43.101Z,8.46
2023-08-14T04:34:18.143Z,7.97
2023-08-14T04:35:53.120Z,7.97
2023-08-14T04:37:27.970Z,8.20
2023-08-14T04:39:02.950Z,8.48
2023-08-14T04:40:37.877Z,8.37
2023-08-14T04:42:12.774Z,8.30
2023-08-14T04:43:47.201Z,8.04
2023-08-14T04:45:21.966Z,8.19
2023-08-14T04:46:59.884Z,8.43
2023-08-14T04:48:35.560Z,8.50
2023-08-14T04:50:10.251Z,8.54
2023-08-14T04:51:45.030Z,8.77
2023-08-14T04:53:19.438Z,8.42
2023-08-14T04:54:54.228Z,8.40
2023-08-14T04:56:28.787Z,8.69
2023-08-14T04:58:03.700Z,8.44
2023-08-14T04:59:38.755Z,8.67
2023-08-14T05:01:13.753Z,8.75
2023-08-14T05:02:48.676Z,8.62
2023-08-14T05:04:25.332Z,8.34
2023-08-14T05:06:00.423Z,8.55
2023-08-14T05:07:35.338Z,8.59
2023-08-14T05:10:54.774Z,8.70
2023-08-14T05:12:29.944Z,8.64
2023-08-14T05:14:07.927Z,8.69
2023-08-14T05:15:44.170Z,8.46
2023-08-14T05:17:19.107Z,8.67
2023-08-14T05:18:53.742Z,8.98
2023-08-14T05:20:28.514Z,8.68
2023-08-14T05:22:02.929Z,8.89
2023-08-14T05:23:37.666Z,9.06
2023-08-14T05:25:12.819Z,9.27
2023-08-14T05:26:47.675Z,9.32
2023-08-14T05:28:22.635Z,9.42
2023-08-14T05:29:57.579Z,9.58
2023-08-14T05:31:32.484Z,9.38
2023-08-14T05:33:07.463Z,9.73
2023-08-14T05:34:42.418Z,9.35
2023-08-14T05:36:17.291Z,9.42
2023-08-14T05:37:54.188Z,9.23
2023-08-14T05:39:29.079Z,9.42
2023-08-14T05:41:03.960Z,9.51
2023-08-14T05:42:38.974Z,9.78
2023-08-14T05:44:13.701Z,9.63
2023-08-14T05:45:48.378Z,10.01
2023-08-14T05:47:23.257Z,10.95
2023-08-14T05:48:58.116Z,11.31
2023-08-14T05:50:32.945Z,11.70
2023-08-14T05:52:07.808Z,11.51
2023-08-14T05:53:42.747Z,11.05
2023-08-14T05:55:18.085Z,10.86
2023-08-14T05:56:53.316Z,10.55
2023-08-14T05:58:28.179Z,10.68
2023-08-14T06:00:02.603Z,10.57
2023-08-14T06:01:37.607Z,10.74
2023-08-14T06:03:12.841Z,10.71
2023-08-14T06:04:47.807Z,11.01
2023-08-14T06:06:22.428Z,10.95
2023-08-14T06:07:58.242Z,11.30
2023-08-14T06:09:33.263Z,11.38
2023-08-14T06:11:08.118Z,11.43
2023-08-14T06:12:43.421Z,11.30
2023-08-14T06:14:18.609Z,11.39
2023-08-14T06:15:53.577Z,11.40
2023-08-14T06:17:32.433Z,11.51
2023-08-14T06:19:07.674Z,11.36
2023-08-14T06:20:42.577Z,11.33
2023-08-14T06:22:19.718Z,11.58
2023-08-14T06:23:54.750Z,11.80
2023-08-14T06:25:31.143Z,11.94
2023-08-14T06:27:05.935Z,12.07
2023-08-14T06:28:40.851Z,12.13
2023-08-14T06:30:16.867Z,12.24
2023-08-14T06:31:52.049Z,12.20
2023-08-14T06:33:26.871Z,12.11
2023-08-14T06:35:01.346Z,12.21
2023-08-14T06:36:36.122Z,12.36
2023-08-14T06:38:10.565Z,12.54
2023-08-14T06:39:45.408Z,12.57
2023-08-14T06:41:20.441Z,12.58
2023-08-14T06:42:55.311Z,12.66
2023-08-14T06:44:30.452Z,12.83
2023-08-14T06:46:05.370Z,12.90
2023-08-14T06:47:46.608Z,12.86
2023-08-14T06:49:21.499Z,12.96
2023-08-14T06:50:58.027Z,13.10
2023-08-14T06:52:32.782Z,13.27
2023-08-14T06:54:07.908Z,13.31
2023-08-14T06:55:49.525Z,13.34
2023-08-14T06:57:24.399Z,13.65
2023-08-14T06:58:59.488Z,13.56
2023-08-14T07:00:34.593Z,13.68
2023-08-14T07:02:09.478Z,13.97
2023-08-14T07:03:44.420Z,13.99
2023-08-14T07:05:19.586Z,14.12
2023-08-14T07:06:54.738Z,14.36
2023-08-14T07:08:30.651Z,14.46
2023-08-14T07:10:05.765Z,14.71
2023-08-14T07:11:41.853Z,14.67
2023-08-14T07:13:16.712Z,14.70
2023-08-14T07:14:51.945Z,14.86
2023-08-14T07:16:26.832Z,14.96
2023-08-14T07:18:01.907Z,15.00
2023-08-14T07:19:38.060Z,15.16
2023-08-14T07:21:13.031Z,15.24
2023-08-14T07:22:48.582Z,15.54
2023-08-14T07:24:23.475Z,15.62
2023-08-14T07:26:01.981Z,15.66
2023-08-14T07:27:36.971Z,15.77
2023-08-14T07:29:11.939Z,16.05
2023-08-14T07:30:46.918Z,16.00
2023-08-14T07:32:22.244Z,16.10
2023-08-14T07:33:57.367Z,16.28
2023-08-14T07:35:32.748Z,16.30
2023-08-14T07:37:07.782Z,16.37
2023-08-14T07:38:42.877Z,16.46
2023-08-14T07:40:18.505Z,16.54
2023-08-14T07:41:53.341Z,16.57
2023-08-14T07:43:28.410Z,16.52
2023-08-14T07:45:03.593Z,16.64
2023-08-14T07:46:38.465Z,16.87
2023-08-14T07:48:13.641Z,17.20
2023-08-14T07:49:48.547Z,17.09
2023-08-14T07:51:24.066Z,17.47
2023-08-14T07:52:59.140Z,17.22
2023-08-14T07:54:34.470Z,17.76
2023-08-14T07:56:09.774Z,17.95
2023-08-14T07:57:47.994Z,18.12
2023-08-14T07:59:23.089Z,17.74
2023-08-14T08:00:58.047Z,17.83
2023-08-14T08:02:32.886Z,17.68
2023-08-14T08:04:07.925Z,17.83
2023-08-14T08:05:42.952Z,17.99
2023-08-14T08:07:18.092Z,18.45
2023-08-14T08:08:55.107Z,18.50
2023-08-14T08:10:30.526Z,18.55
2023-08-14T08:12:05.692Z,18.16
2023-08-14T08:13:40.823Z,18.24
2023-08-14T08:15:15.745Z,18.65
2023-08-14T08:16:51.490Z,18.54
2023-08-14T08:18:26.447Z,18.78
2023-08-14T08:20:01.639Z,18.90
2023-08-14T08:21:36.698Z,18.76
2023-08-14T08:23:11.702Z,19.03
2023-08-14T08:24:46.648Z,19.54
2023-08-14T08:26:21.571Z,19.56
2023-08-14T08:27:56.457Z,19.65
2023-08-14T08:29:31.340Z,19.64
2023-08-14T08:31:06.261Z,19.48
2023-08-14T08:32:41.341Z,19.38
2023-08-14T08:34:16.256Z,19.26
2023-08-14T08:35:51.263Z,19.52
2023-08-14T08:37:26.103Z,19.73
2023-08-14T08:39:01.152Z,19.79
2023-08-14T08:40:36.876Z,19.98
2023-08-14T08:42:11.979Z,20.11
2023-08-14T08:43:47.891Z,20.39
2023-08-14T08:45:25.142Z,20.54
2023-08-14T08:47:04.801Z,20.00
2023-08-14T08:48:43.763Z,20.37
2023-08-14T08:50:18.903Z,20.09
2023-08-14T08:51:55.105Z,20.27
2023-08-14T08:53:30.539Z,20.70
2023-08-14T08:55:06.626Z,20.95
2023-08-14T08:56:42.562Z,21.28
2023-08-14T08:58:18.811Z,21.55
2023-08-14T08:59:53.927Z,21.12
2023-08-14T09:01:31.886Z,20.93
2023-08-14T09:03:07.277Z,21.39
2023-08-14T09:04:42.793Z,21.41
2023-08-14T09:06:17.757Z,21.35
2023-08-14T09:07:52.804Z,21.62
2023-08-14T09:09:27.994Z,21.61
2023-08-14T09:11:02.905Z,21.56
2023-08-14T09:12:37.783Z,21.24
2023-08-14T09:14:13.697Z,21.27
2023-08-14T09:15:49.103Z,21.98
2023-08-14T09:17:24.807Z,21.88
2023-08-14T09:19:01.430Z,21.92
2023-08-14T09:20:36.394Z,21.89
2023-08-14T09:22:12.542Z,21.71
2023-08-14T09:23:49.605Z,21.50
2023-08-14T09:25:24.494Z,21.60
2023-08-14T09:27:00.045Z,21.36
2023-08-14T09:28:35.586Z,21.89
2023-08-14T09:30:13.172Z,22.31
2023-08-14T09:31:48.208Z,22.34
2023-08-14T09:33:25.317Z,22.20
2023-08-14T09:35:05.612Z,21.75
2023-08-14T09:36:41.288Z,22.37
2023-08-14T09:38:17.360Z,22.34
2023-08-14T09:40:17.612Z,21.78
2023-08-14T09:41:52.529Z,21.98
2023-08-14T09:43:28.378Z,22.35
2023-08-14T09:45:03.724Z,22.54
2023-08-14T09:46:39.515Z,22.71
2023-08-14T09:48:14.593Z,22.44
2023-08-14T09:49:49.886Z,22.84
2023-08-14T09:51:24.796Z,22.63
2023-08-14T09:53:02.184Z,22.41
2023-08-14T09:54:37.319Z,22.39
2023-08-14T09:56:14.870Z,22.98
2023-08-14T09:57:51.233Z,23.19
2023-08-14T09:59:26.107Z,23.10
2023-08-14T10:01:01.049Z,23.48
2023-08-14T10:02:36.876Z,23.36
2023-08-14T10:04:12.302Z,23.22
2023-08-14T10:05:47.224Z,23.41
2023-08-14T10:07:25.465Z,23.12
2023-08-14T10:09:03.106Z,23.33
2023-08-14T10:10:42.660Z,23.29
2023-08-14T10:12:24.988Z,22.87
2023-08-14T10:14:09.351Z,23.32
2023-08-14T10:15:48.820Z,23.44
2023-08-14T10:17:33.715Z,23.44
2023-08-14T10:19:14.366Z,23.73
2023-08-14T10:20:51.203Z,24.08
2023-08-14T10:22:29.793Z,23.37
2023-08-14T10:24:05.639Z,23.90
2023-08-14T10:25:41.547Z,24.01
2023-08-14T10:27:17.032Z,23.81
2023-08-14T10:28:52.756Z,23.67
2023-08-14T10:30:28.588Z,23.91
2023-08-14T10:32:04.778Z,24.27
2023-08-14T10:33:40.728Z,24.37
2023-08-14T10:35:15.678Z,24.56
2023-08-14T10:36:53.452Z,24.29
2023-08-14T10:38:43.194Z,23.91
2023-08-14T10:40:25.770Z,23.84
2023-08-14T10:42:02.065Z,23.84
2023-08-14T10:43:37.373Z,23.86
2023-08-14T10:45:12.825Z,23.95
2023-08-14T10:46:48.748Z,24.03
2023-08-14T10:48:24.905Z,24.07
2023-08-14T10:50:00.356Z,24.22
2023-08-14T10:51:38.268Z,24.27
2023-08-14T10:53:13.312Z,24.46
2023-08-14T10:54:54.376Z,24.52
2023-08-14T10:56:51.161Z,24.13
2023-08-14T10:58:38.109Z,24.32
2023-08-14T11:00:23.132Z,24.41
2023-08-14T11:02:07.857Z,24.24
2023-08-14T11:04:05.677Z,24.63
2023-08-14T11:05:42.246Z,24.84
2023-08-14T11:07:19.133Z,24.76
2023-08-14T11:09:22.449Z,24.79
2023-08-14T11:10:57.577Z,24.50
2023-08-14T11:12:33.790Z,24.68
2023-08-14T11:14:08.760Z,24.73
2023-08-14T11:15:45.088Z,24.92
2023-08-14T11:17:20.410Z,24.67
2023-08-14T11:18:59.213Z,24.39
2023-08-14T11:20:35.271Z,24.12
2023-08-14T11:22:10.749Z,24.17
2023-08-14T11:23:45.762Z,24.35
2023-08-14T11:25:21.587Z,24.51
2023-08-14T11:26:59.836Z,24.39
2023-08-14T11:28:35.154Z,24.47
2023-08-14T11:30:15.174Z,24.57
2023-08-14T11:31:53.849Z,24.53
2023-08-14T11:33:28.794Z,24.78
2023-08-14T11:35:05.571Z,24.18
2023-08-14T11:37:08.240Z,24.26
2023-08-14T11:38:44.402Z,24.34
2023-08-14T11:40:19.517Z,24.36
2023-08-14T11:41:54.478Z,24.43
2023-08-14T11:43:30.625Z,24.45
2023-08-14T11:45:06.956Z,24.51
2023-08-14T11:46:41.881Z,24.65
2023-08-14T11:48:17.058Z,24.40
2023-08-14T11:49:53.234Z,24.16
2023-08-14T11:51:28.204Z,24.21
2023-08-14T11:53:04.171Z,24.37
2023-08-14T11:54:39.252Z,24.32
2023-08-14T11:56:14.527Z,24.26
2023-08-14T11:57:50.237Z,24.19
2023-08-14T11:59:25.198Z,24.27
2023-08-14T12:01:00.979Z,24.43
2023-08-14T12:02:36.572Z,24.38
2023-08-14T12:04:12.783Z,24.00
2023-08-14T12:05:49.512Z,24.13
2023-08-14T12:07:24.980Z,24.20
2023-08-14T12:09:00.279Z,24.46
2023-08-14T12:10:35.290Z,24.38
2023-08-14T12:12:10.246Z,24.15
2023-08-14T12:13:53.884Z,24.32
2023-08-14T12:15:29.913Z,24.37
2023-08-14T12:17:17.296Z,24.37
2023-08-14T12:18:53.200Z,24.52
2023-08-14T12:20:35.685Z,24.66
2023-08-14T12:22:11.027Z,24.47
2023-08-14T12:23:56.587Z,24.38
2023-08-14T12:25:31.503Z,24.30
2023-08-14T12:27:06.730Z,24.31
2023-08-14T12:28:42.859Z,24.41
2023-08-14T12:30:17.744Z,24.29
2023-08-14T12:31:52.775Z,24.24
2023-08-14T12:33:28.406Z,24.52
2023-08-14T12:35:04.517Z,24.58
2023-08-14T12:36:39.880Z,24.32
2023-08-14T12:38:14.688Z,24.19
2023-08-14T12:39:53.110Z,24.43
2023-08-14T12:41:28.097Z,24.30
2023-08-14T12:43:03.278Z,24.21
2023-08-14T12:44:38.160Z,24.34
2023-08-14T12:46:14.087Z,24.35
2023-08-14T12:47:48.952Z,24.29
2023-08-14T12:49:24.170Z,24.14
2023-08-14T12:51:02.727Z,24.12
2023-08-14T12:52:38.319Z,24.24
2023-08-14T12:54:15.356Z,24.33
2023-08-14T12:55:54.950Z,24.46
2023-08-14T12:57:38.105Z,24.15
2023-08-14T12:59:13.731Z,23.99
2023-08-14T13:00:48.566Z,24.02
2023-08-14T13:02:25.051Z,24.10
2023-08-14T13:04:01.007Z,23.94
2023-08-14T13:05:38.941Z,24.19
2023-08-14T13:07:14.973Z,24.57
2023-08-14T13:08:50.030Z,24.43
2023-08-14T13:10:25.166Z,24.36
2023-08-14T13:12:01.621Z,24.33
2023-08-14T13:13:36.796Z,24.16
2023-08-14T13:15:12.197Z,24.39
2023-08-14T13:16:48.633Z,24.12
2023-08-14T13:18:24.575Z,23.96
2023-08-14T13:19:59.523Z,24.25
2023-08-14T13:21:34.392Z,24.16
2023-08-14T13:23:09.208Z,24.20
2023-08-14T13:24:44.246Z,24.31
2023-08-14T13:26:26.505Z,24.19
2023-08-14T13:28:02.748Z,24.10
2023-08-14T13:29:38.430Z,24.14
2023-08-14T13:31:13.766Z,24.00
2023-08-14T13:32:48.662Z,24.06
2023-08-14T13:34:23.544Z,24.04
2023-08-14T13:35:58.395Z,24.06
2023-08-14T13:37:33.478Z,24.12
2023-08-14T13:39:09.276Z,23.96
2023-08-14T13:40:44.706Z,23.75
2023-08-14T13:42:19.815Z,23.87
2023-08-14T13:43:55.146Z,23.88
2023-08-14T13:45:31.584Z,24.03
2023-08-14T13:47:06.738Z,24.01
2023-08-14T13:48:41.751Z,23.92
2023-08-14T13:50:22.964Z,24.02
2023-08-14T13:52:05.524Z,23.98
2023-08-14T13:53:40.352Z,23.93
2023-08-14T13:55:15.216Z,23.71
2023-08-14T13:56:50.245Z,23.69
2023-08-14T13:58:26.478Z,23.73
2023-08-14T14:00:01.471Z,23.73
2023-08-14T14:01:36.393Z,23.82
2023-08-14T14:03:11.477Z,23.80
2023-08-14T14:04:46.441Z,23.66
2023-08-14T14:06:22.136Z,23.82
2023-08-14T14:07:58.330Z,23.66
2023-08-14T14:09:33.677Z,23.60
2023-08-14T14:11:08.577Z,23.56
2023-08-14T14:12:59.775Z,23.66
2023-08-14T14:14:36.480Z,23.56
2023-08-14T14:16:12.103Z,23.68
2023-08-14T14:17:47.017Z,23.66
2023-08-14T14:19:21.866Z,23.61
2023-08-14T14:20:56.898Z,23.44
2023-08-14T14:22:31.762Z,23.40
2023-08-14T14:24:07.002Z,23.57
2023-08-14T14:25:41.916Z,23.48
2023-08-14T14:27:17.177Z,23.58
2023-08-14T14:28:52.230Z,23.45
2023-08-14T14:30:27.097Z,23.41
2023-08-14T14:32:02.067Z,23.49
2023-08-14T14:33:36.941Z,23.42
2023-08-14T14:35:12.921Z,23.37
2023-08-14T14:36:47.876Z,23.20
2023-08-14T14:38:22.698Z,23.23
2023-08-14T14:39:57.833Z,23.28
2023-08-14T14:41:32.743Z,23.21
2023-08-14T14:43:07.591Z,23.20
2023-08-14T14:44:42.892Z,23.21
2023-08-14T14:46:18.023Z,23.18
2023-08-14T14:47:53.132Z,23.23
2023-08-14T14:49:27.962Z,23.14
2023-08-14T14:51:03.011Z,23.14
2023-08-14T14:52:37.885Z,22.97
2023-08-14T14:54:12.686Z,22.94
2023-08-14T14:55:47.809Z,22.93
2023-08-14T14:57:23.054Z,22.90
2023-08-14T14:58:58.196Z,22.85
2023-08-14T15:00:33.662Z,22.81
2023-08-14T15:02:19.006Z,22.75
2023-08-14T15:03:58.873Z,22.68
2023-08-14T15:05:35.796Z,22.67
2023-08-14T15:07:10.720Z,22.52
2023-08-14T15:08:45.666Z,22.53
2023-08-14T15:10:20.605Z,22.42
2023-08-14T15:11:55.654Z,22.44
2023-08-14T15:13:30.580Z,22.40
2023-08-14T15:15:05.814Z,22.38
2023-08-14T15:16:40.672Z,22.30
2023-08-14T15:18:15.805Z,22.25
2023-08-14T15:19:50.828Z,22.26
2023-08-14T15:21:25.665Z,22.22
2023-08-14T15:23:00.561Z,22.09
2023-08-14T15:24:36.934Z,22.06
2023-08-14T15:26:11.905Z,21.92
2023-08-14T15:27:46.765Z,21.84
2023-08-14T15:29:21.717Z,21.80
2023-08-14T15:31:01.467Z,21.82
2023-08-14T15:32:37.572Z,21.81
2023-08-14T15:34:12.517Z,21.78
2023-08-14T15:35:47.397Z,21.64
2023-08-14T15:37:22.563Z,21.43
2023-08-14T15:38:58.011Z,21.28
2023-08-14T15:40:33.146Z,21.13
2023-08-14T15:42:08.250Z,20.87
2023-08-14T15:43:43.593Z,20.78
2023-08-14T15:45:18.636Z,20.55
2023-08-14T15:46:53.457Z,20.42
2023-08-14T15:48:28.290Z,20.21
2023-08-14T15:50:03.435Z,20.03
2023-08-14T15:51:38.355Z,19.96
2023-08-14T15:53:13.300Z,20.26
2023-08-14T15:54:53.607Z,20.24
2023-08-14T15:56:28.942Z,20.11
2023-08-14T15:58:03.802Z,19.88
2023-08-14T15:59:38.784Z,19.66
2023-08-14T16:01:14.997Z,19.59
2023-08-14T16:02:49.971Z,19.43
2023-08-14T16:04:24.891Z,19.07
2023-08-14T16:05:59.830Z,18.77
2023-08-14T16:07:34.772Z,18.63
2023-08-14T16:09:11.279Z,18.55
2023-08-14T16:10:47.376Z,18.50
2023-08-14T16:12:22.339Z,18.31
2023-08-14T16:13:57.176Z,18.18
2023-08-14T16:15:32.424Z,18.12
2023-08-14T16:17:08.113Z,17.94
2023-08-14T16:18:44.070Z,17.98
2023-08-14T16:20:18.961Z,18.02
2023-08-14T16:21:54.003Z,18.16
2023-08-14T16:23:28.957Z,18.14
2023-08-14T16:25:03.827Z,18.19
2023-08-14T16:26:38.639Z,18.24
2023-08-14T16:28:13.529Z,18.43
2023-08-14T16:29:48.431Z,18.40
2023-08-14T16:31:23.347Z,18.36
2023-08-14T16:32:58.327Z,18.56
2023-08-14T16:34:33.473Z,18.67
2023-08-14T16:36:08.405Z,18.61
2023-08-14T16:37:43.474Z,18.54
2023-08-14T16:39:19.484Z,18.51
2023-08-14T16:40:54.893Z,17.95
2023-08-14T16:42:29.775Z,17.66
2023-08-14T16:44:04.921Z,17.62
2023-08-14T16:45:40.262Z,17.70
2023-08-14T16:47:15.267Z,17.96
2023-08-14T16:48:50.158Z,17.79
2023-08-14T16:50:25.616Z,17.69
2023-08-14T16:52:00.526Z,16.92
2023-08-14T16:53:35.566Z,16.95
2023-08-14T16:55:10.738Z,17.42
2023-08-14T16:56:45.594Z,17.67
2023-08-14T16:58:20.438Z,17.49
2023-08-14T16:59:55.560Z,17.02
2023-08-14T17:01:30.384Z,17.13
2023-08-14T17:03:06.800Z,17.06
2023-08-14T17:04:41.763Z,16.68
2023-08-14T17:06:16.856Z,16.80
2023-08-14T17:07:51.834Z,16.76
2023-08-14T17:09:26.670Z,16.29
2023-08-14T17:11:03.169Z,16.50
2023-08-14T17:12:38.170Z,16.48
2023-08-14T17:14:13.101Z,16.57
2023-08-14T17:15:47.941Z,16.45
2023-08-14T17:17:22.760Z,16.69
2023-08-14T17:18:58.496Z,16.32
2023-08-14T17:20:33.339Z,16.20
2023-08-14T17:22:08.272Z,16.63
2023-08-14T17:23:43.223Z,16.29
2023-08-14T17:25:18.307Z,16.33
2023-08-14T17:26:53.179Z,16.41
2023-08-14T17:28:29.935Z,16.06
2023-08-14T17:30:05.275Z,16.05
2023-08-14T17:31:40.195Z,16.14
2023-08-14T17:33:15.396Z,16.40
2023-08-14T17:34:50.420Z,16.32
2023-08-14T17:36:25.270Z,16.02
2023-08-14T17:38:00.368Z,15.60
2023-08-14T17:39:35.244Z,15.47
2023-08-14T17:41:10.205Z,15.42
2023-08-14T17:42:45.075Z,15.58
2023-08-14T17:44:20.031Z,15.82
2023-08-14T17:45:55.267Z,15.83
2023-08-14T17:47:32.673Z,16.18
2023-08-14T17:49:07.548Z,15.80
2023-08-14T17:50:42.568Z,15.83
2023-08-14T17:52:17.422Z,15.71
2023-08-14T17:53:54.131Z,15.34
2023-08-14T17:55:29.003Z,15.50
2023-08-14T17:57:04.456Z,15.67
2023-08-14T17:58:39.287Z,15.71
2023-08-14T18:00:14.467Z,15.62
2023-08-14T18:01:49.312Z,15.78
2023-08-14T18:03:24.614Z,15.82
2023-08-14T18:04:59.558Z,15.69
2023-08-14T18:06:34.751Z,15.47
2023-08-14T18:08:09.627Z,15.16
2023-08-14T18:09:44.712Z,14.80
2023-08-14T18:11:23.012Z,14.79
2023-08-14T18:12:57.892Z,14.68
2023-08-14T18:14:32.821Z,14.86
2023-08-14T18:16:08.683Z,15.27
2023-08-14T18:17:43.759Z,15.26
2023-08-14T18:20:56.408Z,15.29
2023-08-14T18:22:31.814Z,15.29
2023-08-14T18:24:07.114Z,15.17
2023-08-14T18:25:42.008Z,15.07
2023-08-14T18:27:16.897Z,15.04
2023-08-14T18:28:52.297Z,14.81
2023-08-14T18:30:27.335Z,14.79
2023-08-14T18:32:02.191Z,14.71
2023-08-14T18:33:37.208Z,14.83
2023-08-14T18:35:12.819Z,14.89
2023-08-14T18:36:47.825Z,14.77
2023-08-14T18:38:22.701Z,14.76
2023-08-14T18:39:57.741Z,14.57
2023-08-14T18:41:32.913Z,14.45
2023-08-14T18:43:07.884Z,14.52
2023-08-14T18:44:42.804Z,14.63
2023-08-14T18:46:17.836Z,14.72
2023-08-14T18:47:53.038Z,14.74
2023-08-14T18:49:28.042Z,14.67
2023-08-14T18:51:02.892Z,14.67
2023-08-14T18:52:38.289Z,14.37
2023-08-14T18:54:13.312Z,14.46
2023-08-14T18:55:48.197Z,14.47
2023-08-14T18:57:23.211Z,14.36
2023-08-14T18:59:00.274Z,14.28
2023-08-14T19:00:37.064Z,14.10
2023-08-14T19:02:11.944Z,14.02
2023-08-14T19:03:46.845Z,14.28
2023-08-14T19:05:21.830Z,14.37
2023-08-14T19:06:56.796Z,13.75
2023-08-14T19:08:31.715Z,14.04
2023-08-14T19:10:07.574Z,14.18
2023-08-14T19:11:42.490Z,13.70
2023-08-14T19:13:17.774Z,13.75
2023-08-14T19:14:53.281Z,13.91
2023-08-14T19:16:28.230Z,13.95
2023-08-14T19:18:03.567Z,13.90
2023-08-14T19:19:38.628Z,13.88
2023-08-14T19:21:14.251Z,14.07
2023-08-14T19:22:49.345Z,14.11
2023-08-14T19:24:24.296Z,14.20
2023-08-14T19:26:09.035Z,14.06
2023-08-14T19:27:50.088Z,14.07
2023-08-14T19:29:24.962Z,13.96
2023-08-14T19:30:59.884Z,14.04
2023-08-14T19:32:35.143Z,13.72
2023-08-14T19:34:10.133Z,13.88
2023-08-14T19:35:45.026Z,13.83
2023-08-14T19:37:20.123Z,13.97
2023-08-14T19:38:57.836Z,14.11
2023-08-14T19:40:33.742Z,13.83
2023-08-14T19:42:08.758Z,13.47
2023-08-14T19:43:43.602Z,13.50
2023-08-14T19:45:18.852Z,13.74
2023-08-14T19:46:53.701Z,13.72
2023-08-14T19:48:29.220Z,13.66
2023-08-14T19:50:04.368Z,13.70
2023-08-14T19:51:39.564Z,13.98
2023-08-14T19:53:15.789Z,13.73
2023-08-14T19:54:50.767Z,13.84
2023-08-14T19:56:25.611Z,13.72
2023-08-14T19:58:00.672Z,13.61
2023-08-14T19:59:35.766Z,13.59
2023-08-14T20:01:12.844Z,13.06
2023-08-14T20:02:51.749Z,13.23
2023-08-14T20:04:27.474Z,13.48
2023-08-14T20:06:02.356Z,13.58
2023-08-14T20:07:37.881Z,13.38
2023-08-14T20:09:13.057Z,13.63
2023-08-14T20:10:49.168Z,13.61
2023-08-14T20:12:24.366Z,13.48
2023-08-14T20:13:59.390Z,13.59
2023-08-14T20:15:43.503Z,13.67
2023-08-14T20:17:19.078Z,13.42
2023-08-14T20:18:54.774Z,13.51
2023-08-14T20:20:29.724Z,13.43
2023-08-14T20:22:04.596Z,13.73
2023-08-14T20:23:41.184Z,13.73
2023-08-14T20:25:16.155Z,13.55
2023-08-14T20:26:51.034Z,13.68
2023-08-14T20:28:25.879Z,13.69
2023-08-14T20:30:00.816Z,13.32
2023-08-14T20:31:36.358Z,12.92
2023-08-14T20:33:12.295Z,12.92
2023-08-14T20:34:47.247Z,13.01
2023-08-14T20:36:22.930Z,13.21
2023-08-14T20:37:57.834Z,13.15
2023-08-14T20:39:32.788Z,13.11
2023-08-14T20:41:07.627Z,13.12
2023-08-14T20:42:42.527Z,12.99
2023-08-14T20:44:17.401Z,12.94
2023-08-14T20:45:52.260Z,13.23
2023-08-14T20:47:27.137Z,13.33
2023-08-14T20:49:02.055Z,13.22
2023-08-14T20:50:37.729Z,13.22